In Rescue
 
Open Full Screen Window  High Contrast Mode
Wind Gusting 00 knots
08
March 19, 2019 6:11 PM CDT
Weather Information
Wind Direction
  240 °
Wind Speed
  08 kt (9 mph)
Wind Gust
  00 kt (0 mph)
Altimeter
30.11 in
Visibility
10 SM
Temperature
05° C
41° F
Dewpoint
-01° C
30° F
Humidity
66%
1hr Rain Fall
00.00 in.
24hr Rain Fall
00.00 in.
Sky Condition
Overcast @ 5,500 ft
VFR

METAR K04W 192311Z AUTO 24008KT 10SM OVC055 05/M01 A3011 RMK AO2

FAA Disclaimer: The data displayed is for advisory purposes only and is not to be used for flight planning or operations.